createdAt,value
2019-04-06T00:00:24.601Z,99.90
2019-04-06T00:03:29.108Z,99.90
2019-04-06T00:06:33.859Z,99.90
2019-04-06T00:09:38.292Z,99.90
2019-04-06T00:12:42.725Z,99.90
2019-04-06T00:15:47.437Z,99.90
2019-04-06T00:18:52.161Z,99.90
2019-04-06T00:21:56.602Z,99.90
2019-04-06T00:25:01.319Z,99.90
2019-04-06T00:28:06.055Z,99.90
2019-04-06T00:31:12.120Z,99.90
2019-04-06T00:34:16.562Z,99.90
2019-04-06T00:37:21.004Z,99.90
2019-04-06T00:40:25.709Z,99.90
2019-04-06T00:43:30.150Z,99.90
2019-04-06T00:46:34.586Z,99.90
2019-04-06T00:49:39.021Z,99.90
2019-04-06T00:52:43.462Z,99.90
2019-04-06T00:55:55.660Z,99.90
2019-04-06T00:58:54.381Z,99.90
2019-04-06T01:01:58.871Z,99.90
2019-04-06T01:05:03.795Z,99.90
2019-04-06T01:08:08.672Z,99.90
2019-04-06T01:11:13.099Z,99.90
2019-04-06T01:14:17.545Z,99.90
2019-04-06T01:17:22.701Z,99.90
2019-04-06T01:20:27.393Z,99.90
2019-04-06T01:23:31.835Z,99.90
2019-04-06T01:26:36.544Z,99.90
2019-04-06T01:29:41.270Z,99.90
2019-04-06T01:32:45.716Z,99.90
2019-04-06T01:35:50.431Z,99.90
2019-04-06T01:38:54.869Z,99.90
2019-04-06T01:41:59.309Z,99.90
2019-04-06T01:45:04.925Z,99.90
2019-04-06T01:48:09.372Z,99.90
2019-04-06T01:51:13.809Z,99.90
2019-04-06T01:54:18.314Z,99.90
2019-04-06T01:57:23.107Z,99.90
2019-04-06T02:00:27.867Z,99.90
2019-04-06T02:03:32.595Z,99.90
2019-04-06T02:06:37.328Z,99.90
2019-04-06T02:09:42.057Z,99.90
2019-04-06T02:12:46.499Z,99.90
2019-04-06T02:15:50.980Z,99.90
2019-04-06T02:18:55.374Z,99.90
2019-04-06T02:21:59.808Z,99.90
2019-04-06T02:25:05.385Z,99.90
2019-04-06T02:28:09.831Z,99.90
2019-04-06T02:31:15.906Z,99.90
2019-04-06T02:34:27.829Z,99.90
2019-04-06T02:37:33.903Z,99.90
2019-04-06T02:40:39.984Z,99.90
2019-04-06T02:43:44.749Z,99.90
2019-04-06T02:46:49.195Z,99.90
2019-04-06T02:49:53.617Z,99.90
2019-04-06T02:52:58.046Z,99.90
2019-04-06T02:56:02.753Z,99.90
2019-04-06T02:59:07.485Z,99.90
2019-04-06T03:02:11.916Z,99.90
2019-04-06T03:05:16.636Z,99.90
2019-04-06T03:08:21.069Z,99.90
2019-04-06T03:11:25.516Z,99.90
2019-04-06T03:14:29.954Z,99.90
2019-04-06T03:17:34.392Z,99.90
2019-04-06T03:20:39.172Z,99.90
2019-04-06T03:23:51.364Z,99.90
2019-04-06T03:27:00.657Z,99.90
2019-04-06T03:29:58.618Z,99.90
2019-04-06T03:33:02.721Z,99.90
2019-04-06T03:36:07.545Z,99.90
2019-04-06T03:39:12.033Z,99.90
2019-04-06T03:42:16.480Z,99.90
2019-04-06T03:45:20.917Z,99.90
2019-04-06T03:48:25.827Z,99.90
2019-04-06T03:51:30.281Z,99.90
2019-04-06T03:54:35.090Z,99.90
2019-04-06T03:57:39.820Z,99.90
2019-04-06T04:00:45.101Z,99.90
2019-04-06T04:03:49.603Z,99.90
2019-04-06T04:06:54.046Z,99.90
2019-04-06T04:09:58.494Z,99.90
2019-04-06T04:13:02.923Z,99.90
2019-04-06T04:16:07.695Z,99.90
2019-04-06T04:19:12.123Z,99.90
2019-04-06T04:22:17.049Z,99.90
2019-04-06T04:25:21.890Z,99.90
2019-04-06T04:28:26.344Z,99.90
2019-04-06T04:31:30.765Z,99.90
2019-04-06T04:34:35.469Z,99.90
2019-04-06T04:37:39.918Z,99.90
2019-04-06T04:40:44.383Z,99.90
2019-04-06T04:43:49.160Z,99.90
2019-04-06T04:46:53.581Z,99.90
2019-04-06T04:49:58.313Z,99.90
2019-04-06T04:53:02.732Z,99.90
2019-04-06T04:56:07.534Z,99.90
2019-04-06T04:59:12.011Z,99.90
2019-04-06T05:02:16.712Z,99.90
2019-04-06T05:05:21.172Z,99.90
2019-04-06T05:08:25.621Z,99.90
2019-04-06T05:11:30.045Z,99.90
2019-04-06T05:15:04.562Z,99.90
2019-04-06T05:18:09.819Z,99.90
2019-04-06T05:21:14.335Z,99.90
2019-04-06T05:24:18.763Z,99.90
2019-04-06T05:27:23.846Z,99.90
2019-04-06T05:30:28.282Z,99.90
2019-04-06T05:33:32.995Z,99.90
2019-04-06T05:36:37.733Z,99.90
2019-04-06T05:39:42.160Z,99.90
2019-04-06T05:42:46.763Z,99.90
2019-04-06T05:45:51.231Z,99.90
2019-04-06T05:48:55.673Z,99.90
2019-04-06T05:52:00.462Z,99.90
2019-04-06T05:55:06.429Z,99.90
2019-04-06T05:58:11.142Z,99.90
2019-04-06T06:01:15.818Z,99.90
2019-04-06T06:04:20.249Z,99.90
2019-04-06T06:07:24.686Z,99.90
2019-04-06T06:10:29.122Z,99.90
2019-04-06T06:13:33.562Z,99.90
2019-04-06T06:16:38.313Z,99.90
2019-04-06T06:19:42.740Z,99.90
2019-04-06T06:22:47.187Z,99.90
2019-04-06T06:25:51.620Z,99.90
2019-04-06T06:28:56.303Z,99.90
2019-04-06T06:32:01.036Z,99.90
2019-04-06T06:35:07.567Z,99.90
2019-04-06T06:38:12.340Z,99.90
2019-04-06T06:41:17.068Z,99.90
2019-04-06T06:44:21.506Z,99.90
2019-04-06T06:47:25.956Z,99.50
2019-04-06T06:50:30.398Z,97.80
2019-04-06T06:53:34.850Z,96.50
2019-04-06T06:56:39.313Z,96.40
2019-04-06T06:59:43.752Z,95.50
2019-04-06T07:02:48.204Z,95.30
2019-04-06T07:05:52.638Z,96.20
2019-04-06T07:08:57.393Z,96.70
2019-04-06T07:12:01.988Z,98.80
2019-04-06T07:15:09.211Z,99.40
2019-04-06T07:18:14.123Z,99.90
2019-04-06T07:21:18.649Z,99.90
2019-04-06T07:24:23.087Z,99.90
2019-04-06T07:27:27.528Z,99.90
2019-04-06T07:30:32.269Z,99.90
2019-04-06T07:33:36.755Z,99.90
2019-04-06T07:36:41.136Z,99.90
2019-04-06T07:39:45.689Z,99.90
2019-04-06T07:42:50.105Z,99.90
2019-04-06T07:45:54.536Z,99.90
2019-04-06T07:49:07.919Z,99.90
2019-04-06T07:52:05.683Z,99.90
2019-04-06T07:55:10.546Z,99.90
2019-04-06T07:58:15.441Z,99.90
2019-04-06T08:01:19.877Z,99.90
2019-04-06T08:04:24.331Z,99.90
2019-04-06T08:07:29.007Z,99.90
2019-04-06T08:10:33.711Z,99.90
2019-04-06T08:13:38.269Z,99.90
2019-04-06T08:16:42.727Z,99.90
2019-04-06T08:19:47.339Z,99.90
2019-04-06T08:22:51.793Z,99.90
2019-04-06T08:25:56.421Z,99.90
2019-04-06T08:29:02.377Z,99.90
2019-04-06T08:32:07.296Z,99.90
2019-04-06T08:35:23.941Z,99.90
2019-04-06T08:38:19.394Z,99.90
2019-04-06T08:41:23.830Z,99.90
2019-04-06T08:44:28.277Z,99.90
2019-04-06T08:47:32.975Z,99.90
2019-04-06T08:50:37.422Z,99.90
2019-04-06T08:53:42.009Z,99.90
2019-04-06T08:56:46.577Z,99.90
2019-04-06T08:59:51.071Z,99.90
2019-04-06T09:02:55.735Z,99.90
2019-04-06T09:06:00.188Z,99.90
2019-04-06T09:09:07.417Z,99.90
2019-04-06T09:12:12.153Z,99.90
2019-04-06T09:15:18.539Z,99.90
2019-04-06T09:18:23.254Z,99.90
2019-04-06T09:21:27.693Z,99.90
2019-04-06T09:24:32.257Z,99.90
2019-04-06T09:27:36.974Z,99.90
2019-04-06T09:30:41.711Z,99.90
2019-04-06T09:33:46.120Z,99.90
2019-04-06T09:36:50.768Z,99.80
2019-04-06T09:39:55.292Z,99.90
2019-04-06T09:43:00.081Z,99.90
2019-04-06T09:46:04.602Z,99.90
2019-04-06T09:49:10.707Z,99.90
2019-04-06T09:52:17.620Z,99.90
2019-04-06T09:55:29.685Z,99.90
2019-04-06T09:58:52.112Z,99.90
2019-04-06T10:02:14.061Z,99.90
2019-04-06T10:05:22.894Z,99.90
2019-04-06T10:08:43.746Z,99.80
2019-04-06T10:11:55.832Z,98.50
2019-04-06T10:15:14.015Z,98.60
2019-04-06T10:18:22.850Z,98.80
2019-04-06T10:21:34.660Z,98.40
2019-04-06T10:24:40.816Z,96.80
2019-04-06T10:27:47.175Z,96.40
2019-04-06T10:31:03.411Z,96.60
2019-04-06T10:34:09.475Z,96.40
2019-04-06T10:37:28.449Z,96.50
2019-04-06T10:40:40.853Z,96.10
2019-04-06T10:43:48.064Z,95.20
2019-04-06T10:47:02.888Z,96.20
2019-04-06T10:50:18.049Z,94.80
2019-04-06T10:53:30.495Z,94.20
2019-04-06T10:56:43.302Z,93.20
2019-04-06T11:00:01.035Z,94.10
2019-04-06T11:03:00.520Z,95.30
2019-04-06T11:06:22.964Z,95.40
2019-04-06T11:09:34.901Z,96.00
2019-04-06T11:12:44.833Z,96.40
2019-04-06T11:16:06.789Z,97.40
2019-04-06T11:19:30.851Z,97.70
2019-04-06T11:22:52.983Z,97.20
2019-04-06T11:25:59.968Z,97.50
2019-04-06T11:29:07.358Z,97.60
2019-04-06T11:32:29.513Z,98.40
2019-04-06T11:35:47.738Z,98.80
2019-04-06T11:38:54.102Z,97.80
2019-04-06T11:42:02.594Z,98.40
2019-04-06T11:45:16.158Z,98.00
2019-04-06T11:48:37.470Z,97.70
2019-04-06T11:51:46.642Z,97.70
2019-04-06T11:54:52.870Z,97.30
2019-04-06T11:58:10.847Z,97.50
2019-04-06T12:01:23.103Z,97.60
2019-04-06T12:04:41.034Z,97.60
2019-04-06T12:07:53.328Z,97.30
2019-04-06T12:11:02.229Z,97.40
2019-04-06T12:14:24.169Z,97.80
2019-04-06T12:17:39.378Z,97.00
2019-04-06T12:20:58.622Z,97.20
2019-04-06T12:24:07.203Z,97.90
2019-04-06T12:27:16.002Z,97.40
2019-04-06T12:30:36.595Z,97.60
2019-04-06T12:33:42.159Z,97.10
2019-04-06T12:37:03.570Z,97.30
2019-04-06T12:40:10.277Z,97.30
2019-04-06T12:43:19.128Z,97.90
2019-04-06T12:46:39.991Z,97.20
2019-04-06T12:49:53.178Z,97.30
2019-04-06T12:53:02.496Z,97.70
2019-04-06T12:56:20.742Z,96.80
2019-04-06T12:59:29.525Z,97.00
2019-04-06T13:02:36.784Z,97.50
2019-04-06T13:06:01.050Z,97.70
2019-04-06T13:09:24.862Z,97.50
2019-04-06T13:12:48.663Z,97.10
2019-04-06T13:16:01.007Z,97.20
2019-04-06T13:19:07.098Z,97.60
2019-04-06T13:22:29.330Z,96.10
2019-04-06T13:25:41.426Z,96.30
2019-04-06T13:28:50.312Z,96.60
2019-04-06T13:32:02.878Z,96.60
2019-04-06T13:35:24.240Z,96.60
2019-04-06T13:38:31.298Z,96.10
2019-04-06T13:41:53.219Z,95.90
2019-04-06T13:45:08.476Z,94.80
2019-04-06T13:48:31.201Z,95.10
2019-04-06T13:51:40.442Z,95.00
2019-04-06T13:55:03.174Z,94.00
2019-04-06T13:58:09.588Z,94.70
2019-04-06T14:01:32.034Z,95.00
2019-04-06T14:04:39.369Z,95.50
2019-04-06T14:07:46.496Z,95.20
2019-04-06T14:10:53.343Z,94.80
2019-04-06T14:14:02.524Z,95.40
2019-04-06T14:17:27.211Z,94.40
2019-04-06T14:20:39.227Z,95.10
2019-04-06T14:23:54.622Z,94.60
2019-04-06T14:27:03.187Z,94.30
2019-04-06T14:30:26.079Z,94.30
2019-04-06T14:33:32.976Z,94.60
2019-04-06T14:36:40.154Z,94.20
2019-04-06T14:39:49.557Z,94.00
2019-04-06T14:43:13.571Z,93.40
2019-04-06T14:46:35.970Z,93.70
2019-04-06T14:49:51.303Z,93.20
2019-04-06T14:53:13.550Z,92.20
2019-04-06T14:56:32.290Z,91.90
2019-04-06T14:59:38.917Z,91.90
2019-04-06T15:02:50.844Z,92.20
2019-04-06T15:05:58.251Z,92.30
2019-04-06T15:09:22.650Z,92.00
2019-04-06T15:12:32.413Z,92.00
2019-04-06T15:15:50.271Z,91.20
2019-04-06T15:19:06.856Z,91.00
2019-04-06T15:22:18.693Z,91.50
2019-04-06T15:25:30.646Z,91.80
2019-04-06T15:28:49.009Z,92.10
2019-04-06T15:31:57.857Z,92.50
2019-04-06T15:35:02.862Z,92.40
2019-04-06T15:38:15.551Z,92.00
2019-04-06T15:41:19.789Z,92.90
2019-04-06T15:44:31.791Z,93.30
2019-04-06T15:47:43.787Z,92.90
2019-04-06T15:50:52.782Z,93.40
2019-04-06T15:54:13.864Z,93.20
2019-04-06T15:57:19.957Z,93.40
2019-04-06T16:00:28.554Z,93.30
2019-04-06T16:03:38.226Z,93.50
2019-04-06T16:06:46.879Z,93.40
2019-04-06T16:09:55.645Z,93.60
2019-04-06T16:13:19.767Z,93.80
2019-04-06T16:16:26.187Z,93.90
2019-04-06T16:19:32.314Z,94.00
2019-04-06T16:22:37.177Z,94.50
2019-04-06T16:25:49.794Z,94.40
2019-04-06T16:28:58.700Z,94.30
2019-04-06T16:32:32.427Z,95.30
2019-04-06T16:35:31.442Z,94.90
2019-04-06T16:38:40.257Z,95.00
2019-04-06T16:41:52.776Z,94.70
2019-04-06T16:44:58.913Z,94.40
2019-04-06T16:48:21.099Z,94.60
2019-04-06T16:51:38.751Z,94.80
2019-04-06T16:55:01.163Z,95.10
2019-04-06T16:58:22.761Z,94.40
2019-04-06T17:01:34.519Z,94.60
2019-04-06T17:04:49.639Z,95.00
2019-04-06T17:08:12.805Z,94.50
2019-04-06T17:11:35.981Z,94.70
2019-04-06T17:14:58.480Z,94.50
2019-04-06T17:18:07.465Z,95.40
2019-04-06T17:21:29.133Z,96.60
2019-04-06T17:24:41.404Z,97.10
2019-04-06T17:28:03.558Z,97.50
2019-04-06T17:31:21.769Z,97.80
2019-04-06T17:34:29.168Z,98.20
2019-04-06T17:37:38.132Z,98.50
2019-04-06T17:40:50.217Z,98.80
2019-04-06T17:44:05.922Z,99.10
2019-04-06T17:47:27.879Z,99.10
2019-04-06T17:50:42.938Z,99.30
2019-04-06T17:53:47.227Z,99.40
2019-04-06T17:56:59.275Z,99.60
2019-04-06T18:00:26.303Z,99.70
2019-04-06T18:03:48.795Z,99.80
2019-04-06T18:07:08.155Z,99.90
2019-04-06T18:10:17.359Z,99.90
2019-04-06T18:13:26.432Z,99.90
2019-04-06T18:16:32.750Z,99.90
2019-04-06T18:19:37.467Z,99.90
2019-04-06T18:22:41.967Z,99.90
2019-04-06T18:25:46.368Z,99.90
2019-04-06T18:28:50.914Z,99.90
2019-04-06T18:31:59.641Z,99.90
2019-04-06T18:35:04.948Z,99.90
2019-04-06T18:38:09.541Z,99.90
2019-04-06T18:41:13.978Z,99.90
2019-04-06T18:44:18.425Z,99.90
2019-04-06T18:47:23.159Z,99.90
2019-04-06T18:50:34.173Z,99.90
2019-04-06T18:53:34.323Z,99.90
2019-04-06T18:56:39.113Z,99.90
2019-04-06T18:59:43.582Z,99.90
2019-04-06T19:02:48.033Z,99.90
2019-04-06T19:05:52.470Z,99.90
2019-04-06T19:08:57.255Z,99.90
2019-04-06T19:12:02.016Z,99.90
2019-04-06T19:15:09.056Z,99.90
2019-04-06T19:18:13.590Z,99.90
2019-04-06T19:21:18.048Z,99.90
2019-04-06T19:24:22.487Z,99.90
2019-04-06T19:27:27.354Z,99.90
2019-04-06T19:30:31.880Z,99.90
2019-04-06T19:33:36.448Z,99.90
2019-04-06T19:36:40.955Z,99.90
2019-04-06T19:39:45.403Z,99.90
2019-04-06T19:42:49.973Z,99.90
2019-04-06T19:45:54.471Z,99.90
2019-04-06T19:48:58.926Z,99.90
2019-04-06T19:52:03.957Z,99.90
2019-04-06T19:55:09.100Z,99.90
2019-04-06T19:58:13.714Z,99.90
2019-04-06T20:01:18.272Z,99.90
2019-04-06T20:04:22.768Z,99.90
2019-04-06T20:07:27.525Z,99.90
2019-04-06T20:10:32.261Z,99.90
2019-04-06T20:13:37.107Z,99.90
2019-04-06T20:16:41.946Z,99.90
2019-04-06T20:19:46.464Z,99.90
2019-04-06T20:22:50.905Z,99.90
2019-04-06T20:25:55.625Z,99.90
2019-04-06T20:29:00.064Z,99.90
2019-04-06T20:32:04.502Z,99.90
2019-04-06T20:35:09.499Z,99.90
2019-04-06T20:38:14.042Z,99.90
2019-04-06T20:41:19.001Z,99.90
2019-04-06T20:44:23.540Z,99.90
2019-04-06T20:47:27.964Z,99.90
2019-04-06T20:50:33.122Z,99.90
2019-04-06T20:53:38.086Z,99.90
2019-04-06T20:56:53.302Z,99.90
2019-04-06T20:59:49.003Z,99.90
2019-04-06T21:02:53.738Z,99.90
2019-04-06T21:05:58.554Z,99.90
2019-04-06T21:09:04.521Z,99.90
2019-04-06T21:12:08.951Z,99.90
2019-04-06T21:15:18.922Z,99.90
2019-04-06T21:18:19.705Z,99.90
2019-04-06T21:21:24.800Z,99.90
2019-04-06T21:24:29.704Z,99.90
2019-04-06T21:27:34.185Z,99.90
2019-04-06T21:30:39.049Z,99.90
2019-04-06T21:33:45.857Z,99.90
2019-04-06T21:36:51.051Z,99.90
2019-04-06T21:39:56.100Z,99.90
2019-04-06T21:43:01.013Z,99.90
2019-04-06T21:46:06.702Z,99.90
2019-04-06T21:49:11.308Z,99.90
2019-04-06T21:52:15.804Z,99.90
2019-04-06T21:55:20.709Z,99.90
2019-04-06T21:58:25.573Z,99.90
2019-04-06T22:01:31.029Z,99.90
2019-04-06T22:04:36.265Z,99.90
2019-04-06T22:07:48.678Z,99.90
2019-04-06T22:10:47.456Z,99.90
2019-04-06T22:13:52.197Z,99.90
2019-04-06T22:16:57.239Z,99.90
2019-04-06T22:20:01.962Z,99.90
2019-04-06T22:23:06.861Z,99.90
2019-04-06T22:26:11.589Z,99.90
2019-04-06T22:29:16.321Z,99.90
2019-04-06T22:32:20.915Z,99.90
2019-04-06T22:35:25.747Z,99.90
2019-04-06T22:38:30.792Z,99.90
2019-04-06T22:41:35.458Z,99.90
2019-04-06T22:44:40.283Z,99.90
2019-04-06T22:47:45.187Z,99.90
2019-04-06T22:50:50.045Z,99.90
2019-04-06T22:53:54.585Z,99.90
2019-04-06T22:56:59.962Z,99.90
2019-04-06T23:00:08.039Z,99.90
2019-04-06T23:03:30.785Z,99.90
2019-04-06T23:06:37.256Z,99.90
2019-04-06T23:09:41.759Z,99.90
2019-04-06T23:12:46.206Z,99.90
2019-04-06T23:15:50.888Z,99.90
2019-04-06T23:18:56.072Z,99.90
2019-04-06T23:22:01.109Z,99.90
2019-04-06T23:25:06.372Z,99.90
2019-04-06T23:28:10.799Z,99.90
2019-04-06T23:31:15.513Z,99.90
2019-04-06T23:34:20.338Z,99.90
2019-04-06T23:37:25.078Z,99.90
2019-04-06T23:40:29.531Z,99.90
2019-04-06T23:43:34.817Z,99.90
2019-04-06T23:46:39.522Z,99.90
2019-04-06T23:49:44.060Z,99.90
2019-04-06T23:52:48.502Z,99.90
2019-04-06T23:55:52.945Z,99.90
2019-04-06T23:58:57.378Z,99.90
